sensor_id;sensor_type;location;lat;lon;timestamp;P1;durP1;ratioP1;P2;durP2;ratioP2
30533;SDS011;17318;52.390;9.754;2022-10-17T00:00:50;3.88;;;1.52;;
30533;SDS011;17318;52.390;9.754;2022-10-17T00:03:16;5.55;;;1.75;;
30533;SDS011;17318;52.390;9.754;2022-10-17T00:05:43;2.65;;;1.40;;
30533;SDS011;17318;52.390;9.754;2022-10-17T00:08:11;10.05;;;1.90;;
30533;SDS011;17318;52.390;9.754;2022-10-17T00:10:37;4.18;;;1.60;;
30533;SDS011;17318;52.390;9.754;2022-10-17T00:13:03;3.50;;;1.40;;
30533;SDS011;17318;52.390;9.754;2022-10-17T00:15:29;1.85;;;1.30;;
30533;SDS011;17318;52.390;9.754;2022-10-17T00:17:55;1.77;;;1.15;;
30533;SDS011;17318;52.390;9.754;2022-10-17T00:20:21;2.20;;;1.45;;
30533;SDS011;17318;52.390;9.754;2022-10-17T00:22:47;5.47;;;1.40;;
30533;SDS011;17318;52.390;9.754;2022-10-17T00:25:12;9.57;;;2.05;;
30533;SDS011;17318;52.390;9.754;2022-10-17T00:27:38;5.43;;;1.52;;
30533;SDS011;17318;52.390;9.754;2022-10-17T00:30:06;1.42;;;1.27;;
30533;SDS011;17318;52.390;9.754;2022-10-17T00:32:34;3.72;;;1.50;;
30533;SDS011;17318;52.390;9.754;2022-10-17T00:35:00;6.38;;;1.58;;
30533;SDS011;17318;52.390;9.754;2022-10-17T00:37:26;2.72;;;1.58;;
30533;SDS011;17318;52.390;9.754;2022-10-17T00:39:52;5.85;;;1.60;;
30533;SDS011;17318;52.390;9.754;2022-10-17T00:42:18;3.45;;;1.70;;
30533;SDS011;17318;52.390;9.754;2022-10-17T00:47:13;6.35;;;1.65;;
30533;SDS011;17318;52.390;9.754;2022-10-17T00:49:43;4.90;;;1.55;;
30533;SDS011;17318;52.390;9.754;2022-10-17T00:52:16;4.05;;;2.05;;
30533;SDS011;17318;52.390;9.754;2022-10-17T00:54:50;6.13;;;1.83;;
30533;SDS011;17318;52.390;9.754;2022-10-17T00:57:21;6.68;;;1.92;;
30533;SDS011;17318;52.390;9.754;2022-10-17T00:59:48;3.45;;;2.03;;
30533;SDS011;17318;52.390;9.754;2022-10-17T01:02:17;10.90;;;2.45;;
30533;SDS011;17318;52.390;9.754;2022-10-17T01:04:45;13.52;;;2.35;;
30533;SDS011;17318;52.390;9.754;2022-10-17T01:09:38;9.40;;;2.65;;
30533;SDS011;17318;52.390;9.754;2022-10-17T01:12:19;7.80;;;2.50;;
30533;SDS011;17318;52.390;9.754;2022-10-17T01:14:57;6.72;;;2.90;;
30533;SDS011;17318;52.390;9.754;2022-10-17T01:31:41;6.60;;;2.65;;
30533;SDS011;17318;52.390;9.754;2022-10-17T01:34:15;7.57;;;2.78;;
30533;SDS011;17318;52.390;9.754;2022-10-17T01:39:32;6.13;;;2.85;;
30533;SDS011;17318;52.390;9.754;2022-10-17T01:44:39;7.60;;;2.88;;
30533;SDS011;17318;52.390;9.754;2022-10-17T01:47:11;6.40;;;2.92;;
30533;SDS011;17318;52.390;9.754;2022-10-17T01:49:41;8.63;;;2.85;;
30533;SDS011;17318;52.390;9.754;2022-10-17T01:54:41;12.02;;;2.47;;
30533;SDS011;17318;52.390;9.754;2022-10-17T01:57:14;5.82;;;2.20;;
30533;SDS011;17318;52.390;9.754;2022-10-17T01:59:49;8.05;;;3.35;;
30533;SDS011;17318;52.390;9.754;2022-10-17T02:02:17;9.80;;;2.80;;
30533;SDS011;17318;52.390;9.754;2022-10-17T02:04:44;6.90;;;2.38;;
30533;SDS011;17318;52.390;9.754;2022-10-17T02:09:38;6.38;;;2.58;;
30533;SDS011;17318;52.390;9.754;2022-10-17T02:20:24;9.65;;;2.50;;
30533;SDS011;17318;52.390;9.754;2022-10-17T02:23:08;8.52;;;2.50;;
30533;SDS011;17318;52.390;9.754;2022-10-17T02:25:45;11.35;;;2.72;;
30533;SDS011;17318;52.390;9.754;2022-10-17T02:31:01;6.53;;;2.47;;
30533;SDS011;17318;52.390;9.754;2022-10-17T02:33:43;6.40;;;2.40;;
30533;SDS011;17318;52.390;9.754;2022-10-17T02:36:25;8.07;;;3.05;;
30533;SDS011;17318;52.390;9.754;2022-10-17T02:38:58;7.15;;;2.88;;
30533;SDS011;17318;52.390;9.754;2022-10-17T02:41:26;14.30;;;2.78;;
30533;SDS011;17318;52.390;9.754;2022-10-17T02:43:54;9.98;;;3.03;;
30533;SDS011;17318;52.390;9.754;2022-10-17T02:46:20;5.20;;;2.65;;
30533;SDS011;17318;52.390;9.754;2022-10-17T02:53:58;10.77;;;2.65;;
30533;SDS011;17318;52.390;9.754;2022-10-17T02:56:58;7.47;;;2.45;;
30533;SDS011;17318;52.390;9.754;2022-10-17T02:59:29;9.15;;;2.60;;
30533;SDS011;17318;52.390;9.754;2022-10-17T03:01:57;5.93;;;2.13;;
30533;SDS011;17318;52.390;9.754;2022-10-17T03:04:26;2.97;;;2.00;;
30533;SDS011;17318;52.390;9.754;2022-10-17T03:06:52;5.75;;;1.90;;
30533;SDS011;17318;52.390;9.754;2022-10-17T03:09:17;4.75;;;2.20;;
30533;SDS011;17318;52.390;9.754;2022-10-17T03:11:43;3.40;;;2.63;;
30533;SDS011;17318;52.390;9.754;2022-10-17T03:14:08;5.13;;;2.83;;
30533;SDS011;17318;52.390;9.754;2022-10-17T03:16:34;5.15;;;2.47;;
30533;SDS011;17318;52.390;9.754;2022-10-17T03:19:00;5.18;;;2.80;;
30533;SDS011;17318;52.390;9.754;2022-10-17T03:21:26;5.68;;;2.85;;
30533;SDS011;17318;52.390;9.754;2022-10-17T03:23:51;4.95;;;2.22;;
30533;SDS011;17318;52.390;9.754;2022-10-17T03:26:17;5.00;;;2.60;;
30533;SDS011;17318;52.390;9.754;2022-10-17T03:28:43;4.72;;;2.38;;
30533;SDS011;17318;52.390;9.754;2022-10-17T03:31:09;5.80;;;2.75;;
30533;SDS011;17318;52.390;9.754;2022-10-17T03:33:37;2.78;;;2.25;;
30533;SDS011;17318;52.390;9.754;2022-10-17T03:36:06;3.50;;;2.35;;
30533;SDS011;17318;52.390;9.754;2022-10-17T03:38:34;2.83;;;2.10;;
30533;SDS011;17318;52.390;9.754;2022-10-17T03:41:00;4.10;;;2.47;;
30533;SDS011;17318;52.390;9.754;2022-10-17T03:43:26;8.35;;;2.45;;
30533;SDS011;17318;52.390;9.754;2022-10-17T03:45:52;6.22;;;2.35;;
30533;SDS011;17318;52.390;9.754;2022-10-17T03:48:17;2.92;;;2.05;;
30533;SDS011;17318;52.390;9.754;2022-10-17T03:50:49;6.80;;;2.50;;
30533;SDS011;17318;52.390;9.754;2022-10-17T03:53:15;3.92;;;2.38;;
30533;SDS011;17318;52.390;9.754;2022-10-17T03:55:41;5.85;;;1.90;;
30533;SDS011;17318;52.390;9.754;2022-10-17T03:58:07;3.20;;;2.30;;
30533;SDS011;17318;52.390;9.754;2022-10-17T04:00:34;7.25;;;2.55;;
30533;SDS011;17318;52.390;9.754;2022-10-17T04:03:00;4.75;;;2.22;;
30533;SDS011;17318;52.390;9.754;2022-10-17T04:05:26;3.70;;;2.47;;
30533;SDS011;17318;52.390;9.754;2022-10-17T04:07:51;9.38;;;2.95;;
30533;SDS011;17318;52.390;9.754;2022-10-17T04:10:17;4.63;;;2.40;;
30533;SDS011;17318;52.390;9.754;2022-10-17T04:12:43;13.13;;;2.70;;
30533;SDS011;17318;52.390;9.754;2022-10-17T04:15:09;5.35;;;2.50;;
30533;SDS011;17318;52.390;9.754;2022-10-17T04:17:34;4.30;;;2.33;;
30533;SDS011;17318;52.390;9.754;2022-10-17T04:20:00;5.85;;;2.50;;
30533;SDS011;17318;52.390;9.754;2022-10-17T04:22:26;5.57;;;2.22;;
30533;SDS011;17318;52.390;9.754;2022-10-17T04:24:52;4.32;;;2.42;;
30533;SDS011;17318;52.390;9.754;2022-10-17T04:27:17;5.65;;;2.50;;
30533;SDS011;17318;52.390;9.754;2022-10-17T04:29:43;3.53;;;2.50;;
30533;SDS011;17318;52.390;9.754;2022-10-17T04:32:09;8.90;;;2.17;;
30533;SDS011;17318;52.390;9.754;2022-10-17T04:34:35;3.15;;;2.47;;
30533;SDS011;17318;52.390;9.754;2022-10-17T04:37:00;3.85;;;1.83;;
30533;SDS011;17318;52.390;9.754;2022-10-17T04:39:29;3.40;;;2.05;;
30533;SDS011;17318;52.390;9.754;2022-10-17T04:41:55;4.03;;;2.38;;
30533;SDS011;17318;52.390;9.754;2022-10-17T04:44:22;7.10;;;2.47;;
30533;SDS011;17318;52.390;9.754;2022-10-17T04:46:48;4.82;;;2.45;;
30533;SDS011;17318;52.390;9.754;2022-10-17T04:49:13;9.35;;;2.30;;
30533;SDS011;17318;52.390;9.754;2022-10-17T04:51:39;3.95;;;2.33;;
30533;SDS011;17318;52.390;9.754;2022-10-17T04:54:05;5.43;;;2.42;;
30533;SDS011;17318;52.390;9.754;2022-10-17T04:56:31;3.60;;;2.75;;
30533;SDS011;17318;52.390;9.754;2022-10-17T04:58:57;5.07;;;2.47;;
30533;SDS011;17318;52.390;9.754;2022-10-17T05:01:23;5.00;;;2.10;;
30533;SDS011;17318;52.390;9.754;2022-10-17T05:03:50;4.60;;;2.53;;
30533;SDS011;17318;52.390;9.754;2022-10-17T05:06:18;7.47;;;2.33;;
30533;SDS011;17318;52.390;9.754;2022-10-17T05:08:45;4.05;;;2.40;;
30533;SDS011;17318;52.390;9.754;2022-10-17T05:11:16;4.72;;;2.17;;
30533;SDS011;17318;52.390;9.754;2022-10-17T05:13:58;3.37;;;2.30;;
30533;SDS011;17318;52.390;9.754;2022-10-17T05:16:26;7.32;;;2.40;;
30533;SDS011;17318;52.390;9.754;2022-10-17T05:18:53;3.78;;;2.03;;
30533;SDS011;17318;52.390;9.754;2022-10-17T05:21:21;7.07;;;2.42;;
30533;SDS011;17318;52.390;9.754;2022-10-17T05:26:14;5.35;;;2.78;;
30533;SDS011;17318;52.390;9.754;2022-10-17T05:28:40;5.03;;;1.90;;
30533;SDS011;17318;52.390;9.754;2022-10-17T05:31:06;5.70;;;2.63;;
30533;SDS011;17318;52.390;9.754;2022-10-17T05:33:34;6.22;;;2.35;;
30533;SDS011;17318;52.390;9.754;2022-10-17T05:36:00;3.97;;;2.15;;
30533;SDS011;17318;52.390;9.754;2022-10-17T05:38:26;3.95;;;2.17;;
30533;SDS011;17318;52.390;9.754;2022-10-17T05:41:01;6.60;;;2.30;;
30533;SDS011;17318;52.390;9.754;2022-10-17T05:43:28;4.57;;;2.38;;
30533;SDS011;17318;52.390;9.754;2022-10-17T05:45:55;2.63;;;2.00;;
30533;SDS011;17318;52.390;9.754;2022-10-17T05:48:21;7.05;;;2.00;;
30533;SDS011;17318;52.390;9.754;2022-10-17T05:50:47;5.50;;;2.63;;
30533;SDS011;17318;52.390;9.754;2022-10-17T05:53:14;4.22;;;1.90;;
30533;SDS011;17318;52.390;9.754;2022-10-17T05:55:40;4.75;;;2.25;;
30533;SDS011;17318;52.390;9.754;2022-10-17T05:58:06;2.42;;;2.00;;
30533;SDS011;17318;52.390;9.754;2022-10-17T06:00:32;6.00;;;2.10;;
30533;SDS011;17318;52.390;9.754;2022-10-17T06:02:58;2.88;;;1.80;;
30533;SDS011;17318;52.390;9.754;2022-10-17T06:05:23;8.38;;;2.25;;
30533;SDS011;17318;52.390;9.754;2022-10-17T06:07:49;4.20;;;2.10;;
30533;SDS011;17318;52.390;9.754;2022-10-17T06:10:16;4.70;;;1.95;;
30533;SDS011;17318;52.390;9.754;2022-10-17T06:12:43;3.20;;;2.20;;
30533;SDS011;17318;52.390;9.754;2022-10-17T06:15:09;8.30;;;2.20;;
30533;SDS011;17318;52.390;9.754;2022-10-17T06:17:35;10.32;;;2.38;;
30533;SDS011;17318;52.390;9.754;2022-10-17T06:20:01;7.15;;;2.28;;
30533;SDS011;17318;52.390;9.754;2022-10-17T06:22:27;12.80;;;6.55;;
30533;SDS011;17318;52.390;9.754;2022-10-17T06:24:53;5.35;;;2.75;;
30533;SDS011;17318;52.390;9.754;2022-10-17T06:27:19;9.05;;;3.60;;
30533;SDS011;17318;52.390;9.754;2022-10-17T06:29:46;9.15;;;4.00;;
30533;SDS011;17318;52.390;9.754;2022-10-17T06:32:13;5.43;;;3.28;;
30533;SDS011;17318;52.390;9.754;2022-10-17T06:34:39;3.00;;;2.40;;
30533;SDS011;17318;52.390;9.754;2022-10-17T06:37:05;5.10;;;2.47;;
30533;SDS011;17318;52.390;9.754;2022-10-17T06:39:30;13.50;;;5.38;;
30533;SDS011;17318;52.390;9.754;2022-10-17T06:42:01;3.85;;;3.20;;
30533;SDS011;17318;52.390;9.754;2022-10-17T06:44:27;3.40;;;2.47;;
30533;SDS011;17318;52.390;9.754;2022-10-17T06:46:55;4.95;;;2.30;;
30533;SDS011;17318;52.390;9.754;2022-10-17T06:49:22;2.75;;;2.08;;
30533;SDS011;17318;52.390;9.754;2022-10-17T06:51:48;8.10;;;2.35;;
30533;SDS011;17318;52.390;9.754;2022-10-17T06:54:14;4.22;;;2.15;;
30533;SDS011;17318;52.390;9.754;2022-10-17T06:56:40;5.53;;;2.40;;
30533;SDS011;17318;52.390;9.754;2022-10-17T06:59:05;5.13;;;2.42;;
30533;SDS011;17318;52.390;9.754;2022-10-17T07:01:32;3.77;;;1.70;;
30533;SDS011;17318;52.390;9.754;2022-10-17T07:03:58;3.67;;;2.30;;
30533;SDS011;17318;52.390;9.754;2022-10-17T07:06:24;8.63;;;2.40;;
30533;SDS011;17318;52.390;9.754;2022-10-17T07:08:50;5.15;;;2.40;;
30533;SDS011;17318;52.390;9.754;2022-10-17T07:11:18;3.47;;;2.08;;
30533;SDS011;17318;52.390;9.754;2022-10-17T07:13:45;3.83;;;2.35;;
30533;SDS011;17318;52.390;9.754;2022-10-17T07:16:11;4.38;;;2.17;;
30533;SDS011;17318;52.390;9.754;2022-10-17T07:18:38;2.88;;;2.03;;
30533;SDS011;17318;52.390;9.754;2022-10-17T07:21:04;3.40;;;2.30;;
30533;SDS011;17318;52.390;9.754;2022-10-17T07:23:30;6.35;;;2.42;;
30533;SDS011;17318;52.390;9.754;2022-10-17T07:26:01;7.97;;;4.40;;
30533;SDS011;17318;52.390;9.754;2022-10-17T07:28:31;6.40;;;3.05;;
30533;SDS011;17318;52.390;9.754;2022-10-17T07:31:02;4.38;;;2.20;;
30533;SDS011;17318;52.390;9.754;2022-10-17T07:33:29;6.45;;;2.40;;
30533;SDS011;17318;52.390;9.754;2022-10-17T07:35:57;3.20;;;2.53;;
30533;SDS011;17318;52.390;9.754;2022-10-17T07:38:23;8.52;;;2.15;;
30533;SDS011;17318;52.390;9.754;2022-10-17T07:40:55;8.35;;;2.83;;
30533;SDS011;17318;52.390;9.754;2022-10-17T07:43:27;6.20;;;1.80;;
30533;SDS011;17318;52.390;9.754;2022-10-17T07:45:53;3.78;;;1.77;;
30533;SDS011;17318;52.390;9.754;2022-10-17T07:48:20;4.35;;;2.33;;
30533;SDS011;17318;52.390;9.754;2022-10-17T07:50:46;5.15;;;2.20;;
30533;SDS011;17318;52.390;9.754;2022-10-17T07:53:12;3.70;;;2.30;;
30533;SDS011;17318;52.390;9.754;2022-10-17T07:55:39;5.10;;;2.03;;
30533;SDS011;17318;52.390;9.754;2022-10-17T07:58:06;5.22;;;2.20;;
30533;SDS011;17318;52.390;9.754;2022-10-17T08:00:32;3.97;;;1.92;;
30533;SDS011;17318;52.390;9.754;2022-10-17T08:02:57;5.13;;;2.20;;
30533;SDS011;17318;52.390;9.754;2022-10-17T08:05:23;5.13;;;2.08;;
30533;SDS011;17318;52.390;9.754;2022-10-17T08:07:49;10.60;;;4.53;;
30533;SDS011;17318;52.390;9.754;2022-10-17T08:10:15;11.20;;;5.95;;
30533;SDS011;17318;52.390;9.754;2022-10-17T08:12:40;12.43;;;3.25;;
30533;SDS011;17318;52.390;9.754;2022-10-17T08:15:07;5.70;;;2.08;;
30533;SDS011;17318;52.390;9.754;2022-10-17T08:17:34;2.20;;;1.88;;
30533;SDS011;17318;52.390;9.754;2022-10-17T08:20:02;6.47;;;2.50;;
30533;SDS011;17318;52.390;9.754;2022-10-17T08:22:28;4.77;;;2.00;;
30533;SDS011;17318;52.390;9.754;2022-10-17T08:24:54;5.60;;;2.40;;
30533;SDS011;17318;52.390;9.754;2022-10-17T08:27:20;3.40;;;2.15;;
30533;SDS011;17318;52.390;9.754;2022-10-17T08:29:49;5.93;;;2.28;;
30533;SDS011;17318;52.390;9.754;2022-10-17T08:32:18;6.85;;;2.72;;
30533;SDS011;17318;52.390;9.754;2022-10-17T08:34:49;4.25;;;1.88;;
30533;SDS011;17318;52.390;9.754;2022-10-17T08:37:16;7.93;;;2.38;;
30533;SDS011;17318;52.390;9.754;2022-10-17T08:39:42;5.57;;;2.67;;
30533;SDS011;17318;52.390;9.754;2022-10-17T08:45:17;6.90;;;2.20;;
30533;SDS011;17318;52.390;9.754;2022-10-17T08:47:57;5.25;;;3.08;;
30533;SDS011;17318;52.390;9.754;2022-10-17T08:50:41;3.28;;;2.15;;
30533;SDS011;17318;52.390;9.754;2022-10-17T08:53:17;11.95;;;2.30;;
30533;SDS011;17318;52.390;9.754;2022-10-17T08:55:50;4.97;;;2.15;;
30533;SDS011;17318;52.390;9.754;2022-10-17T09:00:46;6.70;;;2.53;;
30533;SDS011;17318;52.390;9.754;2022-10-17T09:09:32;4.75;;;2.30;;
30533;SDS011;17318;52.390;9.754;2022-10-17T09:17:41;6.28;;;2.70;;
30533;SDS011;17318;52.390;9.754;2022-10-17T09:20:18;7.43;;;3.00;;
30533;SDS011;17318;52.390;9.754;2022-10-17T09:22:58;13.38;;;2.08;;
30533;SDS011;17318;52.390;9.754;2022-10-17T09:25:54;4.63;;;1.98;;
30533;SDS011;17318;52.390;9.754;2022-10-17T09:28:32;3.60;;;2.20;;
30533;SDS011;17318;52.390;9.754;2022-10-17T09:31:04;4.03;;;2.38;;
30533;SDS011;17318;52.390;9.754;2022-10-17T09:33:40;5.03;;;1.90;;
30533;SDS011;17318;52.390;9.754;2022-10-17T09:36:19;3.53;;;1.88;;
30533;SDS011;17318;52.390;9.754;2022-10-17T09:38:59;10.90;;;2.58;;
30533;SDS011;17318;52.390;9.754;2022-10-17T09:41:46;5.60;;;2.72;;
30533;SDS011;17318;52.390;9.754;2022-10-17T09:49:33;4.85;;;2.05;;
30533;SDS011;17318;52.390;9.754;2022-10-17T09:52:08;3.22;;;2.22;;
30533;SDS011;17318;52.390;9.754;2022-10-17T09:54:42;7.63;;;1.73;;
30533;SDS011;17318;52.390;9.754;2022-10-17T09:57:12;1.73;;;1.50;;
30533;SDS011;17318;52.390;9.754;2022-10-17T10:02:25;3.22;;;2.10;;
30533;SDS011;17318;52.390;9.754;2022-10-17T10:07:29;5.82;;;2.42;;
30533;SDS011;17318;52.390;9.754;2022-10-17T10:09:57;10.35;;;6.43;;
30533;SDS011;17318;52.390;9.754;2022-10-17T10:12:26;3.47;;;2.20;;
30533;SDS011;17318;52.390;9.754;2022-10-17T10:15:00;6.28;;;2.15;;
30533;SDS011;17318;52.390;9.754;2022-10-17T10:17:37;3.13;;;1.80;;
30533;SDS011;17318;52.390;9.754;2022-10-17T10:23:04;7.32;;;2.10;;
30533;SDS011;17318;52.390;9.754;2022-10-17T10:25:30;4.60;;;1.70;;
30533;SDS011;17318;52.390;9.754;2022-10-17T10:27:55;4.18;;;2.08;;
30533;SDS011;17318;52.390;9.754;2022-10-17T10:30:26;5.63;;;1.83;;
30533;SDS011;17318;52.390;9.754;2022-10-17T10:32:53;7.20;;;2.17;;
30533;SDS011;17318;52.390;9.754;2022-10-17T10:35:24;8.98;;;2.17;;
30533;SDS011;17318;52.390;9.754;2022-10-17T10:38:00;6.57;;;2.13;;
30533;SDS011;17318;52.390;9.754;2022-10-17T10:40:29;4.22;;;1.77;;
30533;SDS011;17318;52.390;9.754;2022-10-17T10:42:59;4.80;;;2.28;;
30533;SDS011;17318;52.390;9.754;2022-10-17T10:45:38;9.32;;;2.50;;
30533;SDS011;17318;52.390;9.754;2022-10-17T10:48:39;6.80;;;2.30;;
30533;SDS011;17318;52.390;9.754;2022-10-17T10:51:08;6.20;;;2.30;;
30533;SDS011;17318;52.390;9.754;2022-10-17T10:53:45;2.75;;;2.13;;
30533;SDS011;17318;52.390;9.754;2022-10-17T10:56:36;6.90;;;2.88;;
30533;SDS011;17318;52.390;9.754;2022-10-17T11:04:38;7.03;;;2.05;;
30533;SDS011;17318;52.390;9.754;2022-10-17T11:07:16;6.80;;;2.15;;
30533;SDS011;17318;52.390;9.754;2022-10-17T11:09:52;8.27;;;2.60;;
30533;SDS011;17318;52.390;9.754;2022-10-17T11:15:13;3.85;;;1.80;;
30533;SDS011;17318;52.390;9.754;2022-10-17T11:17:56;4.75;;;2.13;;
30533;SDS011;17318;52.390;9.754;2022-10-17T11:26:19;6.40;;;2.22;;
30533;SDS011;17318;52.390;9.754;2022-10-17T11:28:54;5.10;;;2.28;;
30533;SDS011;17318;52.390;9.754;2022-10-17T11:31:22;2.45;;;1.95;;
30533;SDS011;17318;52.390;9.754;2022-10-17T11:36:39;5.45;;;2.03;;
30533;SDS011;17318;52.390;9.754;2022-10-17T11:39:13;7.93;;;1.98;;
30533;SDS011;17318;52.390;9.754;2022-10-17T11:47:06;8.15;;;2.10;;
30533;SDS011;17318;52.390;9.754;2022-10-17T11:49:49;9.27;;;2.63;;
30533;SDS011;17318;52.390;9.754;2022-10-17T11:52:32;6.03;;;2.47;;
30533;SDS011;17318;52.390;9.754;2022-10-17T11:55:13;7.32;;;2.38;;
30533;SDS011;17318;52.390;9.754;2022-10-17T11:58:10;6.72;;;2.05;;
30533;SDS011;17318;52.390;9.754;2022-10-17T12:03:25;11.63;;;2.08;;
30533;SDS011;17318;52.390;9.754;2022-10-17T12:08:56;7.10;;;2.53;;
30533;SDS011;17318;52.390;9.754;2022-10-17T12:11:47;7.38;;;2.25;;
30533;SDS011;17318;52.390;9.754;2022-10-17T12:14:38;6.70;;;2.40;;
30533;SDS011;17318;52.390;9.754;2022-10-17T12:19:45;8.82;;;2.20;;
30533;SDS011;17318;52.390;9.754;2022-10-17T12:24:41;7.57;;;2.38;;
30533;SDS011;17318;52.390;9.754;2022-10-17T12:33:10;5.22;;;2.30;;
30533;SDS011;17318;52.390;9.754;2022-10-17T12:38:45;6.72;;;3.30;;
30533;SDS011;17318;52.390;9.754;2022-10-17T12:41:11;9.43;;;2.78;;
30533;SDS011;17318;52.390;9.754;2022-10-17T12:43:50;4.45;;;2.50;;
30533;SDS011;17318;52.390;9.754;2022-10-17T12:52:14;10.87;;;2.47;;
30533;SDS011;17318;52.390;9.754;2022-10-17T12:57:31;5.80;;;2.45;;
30533;SDS011;17318;52.390;9.754;2022-10-17T13:00:13;7.28;;;2.53;;
30533;SDS011;17318;52.390;9.754;2022-10-17T13:02:43;5.68;;;2.13;;
30533;SDS011;17318;52.390;9.754;2022-10-17T13:05:14;5.72;;;2.30;;
30533;SDS011;17318;52.390;9.754;2022-10-17T13:07:55;13.07;;;3.17;;
30533;SDS011;17318;52.390;9.754;2022-10-17T13:10:28;5.78;;;2.25;;
30533;SDS011;17318;52.390;9.754;2022-10-17T13:12:59;6.47;;;2.50;;
30533;SDS011;17318;52.390;9.754;2022-10-17T13:15:36;4.65;;;2.20;;
30533;SDS011;17318;52.390;9.754;2022-10-17T13:18:02;4.18;;;2.40;;
30533;SDS011;17318;52.390;9.754;2022-10-17T13:20:30;6.82;;;2.63;;
30533;SDS011;17318;52.390;9.754;2022-10-17T13:22:56;8.53;;;2.30;;
30533;SDS011;17318;52.390;9.754;2022-10-17T13:25:23;8.85;;;2.60;;
30533;SDS011;17318;52.390;9.754;2022-10-17T13:27:50;7.13;;;2.13;;
30533;SDS011;17318;52.390;9.754;2022-10-17T13:30:30;9.77;;;2.75;;
30533;SDS011;17318;52.390;9.754;2022-10-17T13:33:00;6.90;;;2.72;;
30533;SDS011;17318;52.390;9.754;2022-10-17T13:35:30;7.80;;;3.00;;
30533;SDS011;17318;52.390;9.754;2022-10-17T13:38:03;7.70;;;3.25;;
30533;SDS011;17318;52.390;9.754;2022-10-17T13:40:37;4.18;;;2.17;;
30533;SDS011;17318;52.390;9.754;2022-10-17T13:43:08;6.53;;;2.78;;
30533;SDS011;17318;52.390;9.754;2022-10-17T13:45:43;3.75;;;2.45;;
30533;SDS011;17318;52.390;9.754;2022-10-17T13:48:22;8.82;;;2.88;;
30533;SDS011;17318;52.390;9.754;2022-10-17T13:50:54;7.57;;;2.90;;
30533;SDS011;17318;52.390;9.754;2022-10-17T13:56:21;15.75;;;2.85;;
30533;SDS011;17318;52.390;9.754;2022-10-17T13:59:01;6.50;;;2.85;;
30533;SDS011;17318;52.390;9.754;2022-10-17T14:01:42;6.97;;;3.33;;
30533;SDS011;17318;52.390;9.754;2022-10-17T14:04:08;10.75;;;3.60;;
30533;SDS011;17318;52.390;9.754;2022-10-17T14:06:41;7.35;;;3.40;;
30533;SDS011;17318;52.390;9.754;2022-10-17T14:09:28;9.73;;;3.10;;
30533;SDS011;17318;52.390;9.754;2022-10-17T14:11:56;7.47;;;2.85;;
30533;SDS011;17318;52.390;9.754;2022-10-17T14:14:34;10.13;;;3.08;;
30533;SDS011;17318;52.390;9.754;2022-10-17T14:17:01;11.25;;;5.28;;
30533;SDS011;17318;52.390;9.754;2022-10-17T14:19:36;9.52;;;3.38;;
30533;SDS011;17318;52.390;9.754;2022-10-17T14:22:16;10.80;;;2.97;;
30533;SDS011;17318;52.390;9.754;2022-10-17T14:24:45;8.13;;;3.30;;
30533;SDS011;17318;52.390;9.754;2022-10-17T14:27:30;6.38;;;3.03;;
30533;SDS011;17318;52.390;9.754;2022-10-17T14:30:27;6.25;;;2.67;;
30533;SDS011;17318;52.390;9.754;2022-10-17T14:32:55;7.82;;;2.70;;
30533;SDS011;17318;52.390;9.754;2022-10-17T14:35:22;4.65;;;2.95;;
30533;SDS011;17318;52.390;9.754;2022-10-17T14:37:50;8.63;;;3.05;;
30533;SDS011;17318;52.390;9.754;2022-10-17T14:40:22;9.80;;;2.90;;
30533;SDS011;17318;52.390;9.754;2022-10-17T14:42:49;10.82;;;3.05;;
30533;SDS011;17318;52.390;9.754;2022-10-17T14:45:21;12.40;;;3.13;;
30533;SDS011;17318;52.390;9.754;2022-10-17T14:47:53;9.57;;;3.13;;
30533;SDS011;17318;52.390;9.754;2022-10-17T14:50:25;10.60;;;4.00;;
30533;SDS011;17318;52.390;9.754;2022-10-17T14:55:38;9.23;;;3.20;;
30533;SDS011;17318;52.390;9.754;2022-10-17T14:58:17;7.75;;;3.15;;
30533;SDS011;17318;52.390;9.754;2022-10-17T15:00:49;10.48;;;3.35;;
30533;SDS011;17318;52.390;9.754;2022-10-17T15:03:15;8.80;;;5.75;;
30533;SDS011;17318;52.390;9.754;2022-10-17T15:05:43;11.43;;;3.50;;
30533;SDS011;17318;52.390;9.754;2022-10-17T15:08:13;11.05;;;4.20;;
30533;SDS011;17318;52.390;9.754;2022-10-17T15:10:40;5.53;;;3.38;;
30533;SDS011;17318;52.390;9.754;2022-10-17T15:13:06;8.23;;;3.42;;
30533;SDS011;17318;52.390;9.754;2022-10-17T15:15:33;8.57;;;3.60;;
30533;SDS011;17318;52.390;9.754;2022-10-17T15:17:59;4.95;;;2.75;;
30533;SDS011;17318;52.390;9.754;2022-10-17T15:20:25;7.30;;;2.95;;
30533;SDS011;17318;52.390;9.754;2022-10-17T15:22:53;7.57;;;3.58;;
30533;SDS011;17318;52.390;9.754;2022-10-17T15:25:20;8.30;;;3.17;;
30533;SDS011;17318;52.390;9.754;2022-10-17T15:27:46;12.85;;;3.67;;
30533;SDS011;17318;52.390;9.754;2022-10-17T15:30:22;9.57;;;3.10;;
30533;SDS011;17318;52.390;9.754;2022-10-17T15:32:52;6.63;;;2.70;;
30533;SDS011;17318;52.390;9.754;2022-10-17T15:35:19;10.60;;;3.30;;
30533;SDS011;17318;52.390;9.754;2022-10-17T15:37:46;7.85;;;3.08;;
30533;SDS011;17318;52.390;9.754;2022-10-17T15:40:16;8.18;;;3.25;;
30533;SDS011;17318;52.390;9.754;2022-10-17T15:42:53;6.93;;;3.42;;
30533;SDS011;17318;52.390;9.754;2022-10-17T15:45:20;9.38;;;3.55;;
30533;SDS011;17318;52.390;9.754;2022-10-17T15:48:01;12.38;;;4.00;;
30533;SDS011;17318;52.390;9.754;2022-10-17T15:50:31;9.25;;;3.78;;
30533;SDS011;17318;52.390;9.754;2022-10-17T15:52:57;8.15;;;3.97;;
30533;SDS011;17318;52.390;9.754;2022-10-17T15:55:24;11.13;;;3.33;;
30533;SDS011;17318;52.390;9.754;2022-10-17T15:57:49;9.50;;;3.55;;
30533;SDS011;17318;52.390;9.754;2022-10-17T16:00:20;12.95;;;3.80;;
30533;SDS011;17318;52.390;9.754;2022-10-17T16:02:47;6.82;;;3.53;;
30533;SDS011;17318;52.390;9.754;2022-10-17T16:05:15;11.13;;;5.18;;
30533;SDS011;17318;52.390;9.754;2022-10-17T16:07:53;8.90;;;3.72;;
30533;SDS011;17318;52.390;9.754;2022-10-17T16:10:20;17.50;;;4.03;;
30533;SDS011;17318;52.390;9.754;2022-10-17T16:12:46;7.53;;;3.58;;
30533;SDS011;17318;52.390;9.754;2022-10-17T16:15:15;11.27;;;3.60;;
30533;SDS011;17318;52.390;9.754;2022-10-17T16:17:42;9.73;;;3.88;;
30533;SDS011;17318;52.390;9.754;2022-10-17T16:20:09;11.73;;;7.53;;
30533;SDS011;17318;52.390;9.754;2022-10-17T16:22:36;15.70;;;6.20;;
30533;SDS011;17318;52.390;9.754;2022-10-17T16:25:06;11.35;;;4.30;;
30533;SDS011;17318;52.390;9.754;2022-10-17T16:27:43;10.60;;;4.10;;
30533;SDS011;17318;52.390;9.754;2022-10-17T16:30:13;12.82;;;3.78;;
30533;SDS011;17318;52.390;9.754;2022-10-17T16:32:39;12.02;;;4.85;;
30533;SDS011;17318;52.390;9.754;2022-10-17T16:35:05;9.80;;;3.90;;
30533;SDS011;17318;52.390;9.754;2022-10-17T16:37:31;14.20;;;4.22;;
30533;SDS011;17318;52.390;9.754;2022-10-17T16:39:57;10.50;;;4.00;;
30533;SDS011;17318;52.390;9.754;2022-10-17T16:42:24;11.70;;;5.18;;
30533;SDS011;17318;52.390;9.754;2022-10-17T16:44:50;13.90;;;4.32;;
30533;SDS011;17318;52.390;9.754;2022-10-17T16:47:16;9.38;;;3.67;;
30533;SDS011;17318;52.390;9.754;2022-10-17T16:49:43;9.18;;;3.92;;
30533;SDS011;17318;52.390;9.754;2022-10-17T16:52:09;8.20;;;3.83;;
30533;SDS011;17318;52.390;9.754;2022-10-17T16:54:35;9.25;;;4.53;;
30533;SDS011;17318;52.390;9.754;2022-10-17T16:57:00;7.00;;;4.00;;
30533;SDS011;17318;52.390;9.754;2022-10-17T16:59:27;6.72;;;3.70;;
30533;SDS011;17318;52.390;9.754;2022-10-17T17:01:53;10.18;;;4.10;;
30533;SDS011;17318;52.390;9.754;2022-10-17T17:04:19;9.20;;;3.47;;
30533;SDS011;17318;52.390;9.754;2022-10-17T17:06:45;12.70;;;4.25;;
30533;SDS011;17318;52.390;9.754;2022-10-17T17:09:11;10.40;;;4.32;;
30533;SDS011;17318;52.390;9.754;2022-10-17T17:11:37;10.40;;;3.92;;
30533;SDS011;17318;52.390;9.754;2022-10-17T17:14:04;8.10;;;3.63;;
30533;SDS011;17318;52.390;9.754;2022-10-17T17:16:31;8.10;;;5.20;;